Tuesday, December 18, 2018, 4:17 PM EST
Back to Local

KPTW, Pottstown Limerick Airport

Location: Royersford, PA, United States Lat: 40.233
Local Time: 4:17 PM EST (21:17 GMT) Lon: -75.55
Time Zone: US/Eastern Elev: 291 ft

Show me the last for .
Show Decoded

2018-12-18 15:54 METAR KPTW 182054Z AUTO 32010KT 10SM CLR 02/M11 A3013 RMK AO2 SLP204 T00221106
                 53014 =
2018-12-18 14:54 METAR KPTW 181954Z AUTO 32010KT 10SM CLR 03/M09 A3010 RMK AO2 SLP194 T00331089 =
2018-12-18 13:54 METAR KPTW 181854Z AUTO 31010G15KT 10SM CLR 04/M08 A3009 RMK AO2 SLP191
                 T00391078 =
2018-12-18 12:54 METAR KPTW 181754Z AUTO 33010KT 10SM CLR 03/M07 A3009 RMK AO2 SLP190 T00331072
                 10039 20000 50002 =
2018-12-18 11:54 METAR KPTW 181654Z AUTO 34008KT 10SM CLR 03/M08 A3010 RMK AO2 SLP192 T00331083 =
2018-12-18 10:54 METAR KPTW 181554Z AUTO 33013G19KT 10SM CLR 03/M08 A3010 RMK AO2 SLP192
                 T00281078 =
2018-12-18 09:54 METAR KPTW 181454Z AUTO 33014G21KT 10SM CLR 02/M08 A3009 RMK AO2 SLP188
                 T00221078 52022 =
2018-12-18 08:54 METAR KPTW 181354Z AUTO 33008G20KT 10SM CLR 02/M08 A3007 RMK AO2 SLP182
                 T00171078 =
2018-12-18 07:54 METAR KPTW 181254Z AUTO 31009G20KT 10SM CLR 01/M07 A3004 RMK AO2 SLP172
                 T00061072 =
2018-12-18 06:54 METAR KPTW 181154Z AUTO 32013G19KT 10SM CLR 01/M08 A3002 RMK AO2 SLP165
                 T00061078 10028 20006 51025 =
2018-12-18 05:54 METAR KPTW 181054Z AUTO 33007KT 10SM BKN055 01/M07 A3000 RMK AO2 SLP160
                 T00111067 =
2018-12-18 04:54 METAR KPTW 180954Z AUTO 31008KT 270V330 10SM OVC048 02/M07 A2997 RMK AO2 SLP149
                 T00221072 =
2018-12-18 03:54 METAR KPTW 180854Z AUTO 31010G24KT 10SM OVC055 02/M07 A2995 RMK AO2 SLP139
                 T00221072 53019 =
2018-12-18 02:54 METAR KPTW 180754Z AUTO 31013G20KT 10SM OVC050 02/M07 A2992 RMK AO2 PK WND
                 32026/0720 SLP132 T00221072 =
2018-12-18 01:54 METAR KPTW 180654Z AUTO 31015G26KT 10SM OVC050 03/M07 A2991 RMK AO2 PK WND
                 29030/0628 SLP126 T00281067 =
2018-12-18 00:54 METAR KPTW 180554Z AUTO 31011G22KT 10SM OVC050 03/M06 A2989 RMK AO2 PK WND
                 33026/0500 SLP120 T00281061 10044 20028 52003 =
2018-12-17 23:54 METAR KPTW 180454Z AUTO 32015G29KT 10SM OVC049 03/M06 A2989 RMK AO2 PK WND
                 29032/0443 SLP121 T00331061 400830017 =
2018-12-17 22:54 METAR KPTW 180354Z AUTO 32012G19KT 10SM OVC045 04/M04 A2987 RMK AO2 SLP115
                 T00391039 =
2018-12-17 21:54 METAR KPTW 180254Z AUTO 30012KT 10SM FEW045 OVC060 03/M03 A2988 RMK AO2 SLP116
                 T00331033 53003 =
2018-12-17 20:54 METAR KPTW 180154Z AUTO 31012KT 10SM OVC043 04/M03 A2988 RMK AO2 SLP116
                 T00391033 =
2018-12-17 19:54 METAR KPTW 180054Z AUTO 30011G19KT 10SM OVC047 04/M04 A2987 RMK AO2 SLP115
                 T00441039 =
2018-12-17 18:54 METAR KPTW 172354Z AUTO 30012G17KT 10SM OVC047 04/M04 A2987 RMK AO2 SLP114
                 T00441044 10083 20044 51023 =
2018-12-17 17:54 METAR KPTW 172254Z AUTO 31011G16KT 10SM OVC050 05/M04 A2985 RMK AO2 SLP107
                 T00501039 =
2018-12-17 16:54 METAR KPTW 172154Z AUTO 29007G18KT 10SM OVC050 06/M03 A2982 RMK AO2 SLP097
                 T00561033 =

Support USWX by starting your Amazon purchase here.